Sites météorologiques /Documentations/ Programmes:

Météo Québec
Site web version 2
Modèle de Meteotemplate

CoCoRaHS Canada
Station CAN-QC-39

En Alerte
*** Système d'alerte
en urgence ***

Québec en Alerte

Météo Alerte Québec

Météo Centre

État des routes
Québec 511

Orage Québec

Québec Vortex
chasseurs de tempêtes

Hydro Météo (info-rivière)

Avalanche Québec

Agrométéo Québec

Bulletin des agriculteurs secteur Québec

Réseau Météo-Québec

Réseau Météo des Provinces Atlantiques

Réseau Météo Ontario

Séismes Canada
l'Est du Canada

Fire Smoke Canada

Canwarn Québec

Climat Québec

Environnement Canada

MétéoMédia

Leuven Template

Réseau de transport de la Capitale (RTC)


Équipements et logiciels de la station:

Davis Pro 2

Weather Display

Asus/Intel

Rapidenet Canada

AVERTISSEMENT DE VENT

Rapports d'observations METAR régionales et provinciales

   
CWPD - L'ÉTAPE
Mise à jour: 16-10-2019 11:00
  
  
   
Température: 7°C
Facteur éolien: 6°C
Point de rosée: 3°C
Humidité relative: 76%
CWPD 161500Z AUTO 20003KT 07/03 RMK AO1 SLP136 T00670030 58011
CYBG - BAGOTVILLE
Mise à jour: 16-10-2019 11:00
  
  
   
Température: 9°C
Facteur éolien: 8°C
Point de rosée: 2°C
Humidité relative: 62%
Pression barométrique: 101.56 kPa
Nuages: Généralement nuageux
visibilité: 40.2 km
Détails des nuages: Partiellement nuageux 12000 ft,
Généralement nuageux 16000 ft
CYBG 161500Z 09004KT 25SM SCT120 BKN160 09/02 A2999 RMK AC4AC3 SLP162
CYRJ - ROBERVAL
Mise à jour: 16-10-2019 11:00
  
  
   
Température: 8°C
Facteur éolien: 7°C
Point de rosée: 2°C
Humidité relative: 66%
Pression barométrique: 101.46 kPa
Nuages: Généralement nuageux
visibilité: 64.4 km
Détails des nuages: Quelques nuages 5000 ft,
Quelques nuages 11000 ft,
Généralement nuageux 22000 ft
CYRJ 161500Z 09005KT 050V120 40SM FEW050 FEW110 BKN220 08/02 A2996 RMK SC1AC2CS5 SC TR SLP154
CYRQ - TROIS-RIVIÈRES
Mise à jour: 16-10-2019 11:00
  
  
   
Température: 9°C
Facteur éolien: 7°C
Point de rosée: 5°C
Humidité relative: 76%
Pression barométrique: 101.22 kPa
Nuages: Nuageux
visibilité: 14.5 km
Détails des nuages: Partiellement nuageux 13000 ft,
Nuageux 22000 ft
CYRQ 161500Z AUTO 06006KT 9SM SCT130 OVC220 09/05 A2989 RMK SLP125
CYYY - MONT-JOLI
Mise à jour: 16-10-2019 11:00
  
  
   
Température: 10°C
Facteur éolien: 8°C
Point de rosée: 3°C
Humidité relative: 62%
Pression barométrique: 101.66 kPa
Nuages: Quelques nuages
visibilité: 48.3 km
Détails des nuages: Quelques nuages 3000 ft,
Quelques nuages 23000 ft
CYYY 161500Z 28009KT 30SM FEW030 FEW230 10/03 A3002 RMK CF1CI2 CF TR SLP170
CYUL - MONTRÉAL
Mise à jour: 16-10-2019 11:00
  
  
   
Température: 12°C
Point de rosée: 4°C
Humidité relative: 58%
Pression barométrique: 100.78 kPa
Nuages: Nuageux
visibilité: 48.3 km
Détails des nuages: Quelques nuages 12000 ft,
Quelques nuages 14000 ft,
Nuageux 24000 ft
CYUL 161500Z 12016G24KT 30SM FEW120 FEW140 OVC240 12/04 A2976 RMK AC1AC2CS6 AC TR PRESFR SLP080
CYQB - QUÉBEC
Mise à jour: 16-10-2019 10:00
  
  
   
Température: 9°C
Facteur éolien: 7°C
Point de rosée: 4°C
Humidité relative: 71%
Pression barométrique: 101.63 kPa
Nuages: Généralement nuageux
visibilité: 48.3 km
Détails des nuages: Partiellement nuageux 13000 ft,
Généralement nuageux 25000 ft
CYQB 161400Z 06007KT 30SM SCT130 BKN250 09/04 A3001 RMK AC3CI4 SLP165
CYRJ - SAGUENUAY
Mise à jour: 16-10-2019 11:00
  
  
   
Température: 8°C
Facteur éolien: 7°C
Point de rosée: 2°C
Humidité relative: 66%
Pression barométrique: 101.46 kPa
Nuages: Généralement nuageux
visibilité: 64.4 km
Détails des nuages: Quelques nuages 5000 ft,
Quelques nuages 11000 ft,
Généralement nuageux 22000 ft
CYRJ 161500Z 09005KT 050V120 40SM FEW050 FEW110 BKN220 08/02 A2996 RMK SC1AC2CS5 SC TR SLP154
CWZS - AMQUI
Mise à jour: 08-07-2019 18:00
PAS actuel
  
  
   
Température: 15°C
Point de rosée: 13°C
Humidité relative: 88%
CWZS 082200Z AUTO 20004KT 15/13 RMK AO1 SLP080 T01490131 50015
CWOC - NEW CARLISLE
Mise à jour: 16-10-2019 11:00
  
  
   
Température: 9°C
Facteur éolien: 7°C
Point de rosée: 2°C
Humidité relative: 62%
CWOC 161500Z AUTO 27006KT 09/02 RMK AO1 SLP171 T00940024 50004
CYBX - BLANC-SABLON
Mise à jour: 16-10-2019 11:00
  
  
   
Température: 7°C
Facteur éolien: 4°C
Point de rosée: 7°C
Humidité relative: 100%
Pression barométrique: 101.08 kPa
Nuages: Nuageux
visibilité: 1.6 km
Détails des nuages: Nuageux 300 ft
CYBX 161500Z 25010G16KT 1/4SM FG VV003 07/07 A2985 RMK FG8 SLP113
CYAD - BAIE-JAMES
Mise à jour: 30-10-2015 16:00
PAS actuel
  
  
   
Température: -2°C
Facteur éolien: -8°C
Point de rosée: -4°C
Humidité relative: 86%
Pression barométrique: 100.51 kPa
Nuages: Nuageux
visibilité: 9.7 km
Détails des nuages: Nuageux 1200 ft
CYAD 302000Z 31011G17KT 6SM -SHSN OVC012 M02/M04 A2968 RMK SC7 LAST OBS/NEXT 021200 UTC SLP066
CYMT - CHIBOUGAMAU
Mise à jour: 16-10-2019 11:00
  
  
   
Température: 2°C
Facteur éolien: 0°C
Point de rosée: 1°C
Humidité relative: 93%
Pression barométrique: 101.25 kPa
Nuages: Nuageux
visibilité: 14.5 km
Détails des nuages: Nuageux 600 ft
CYMT 161500Z AUTO 10004KT 060V120 9SM OVC006 02/01 A2990 RMK SLP145
CYGR - ILES-DE-LA-MADELEINE
Mise à jour: 16-10-2019 11:00
  
  
   
Température: 12°C
Point de rosée: 5°C
Humidité relative: 63%
Pression barométrique: 101.76 kPa
Nuages: Quelques nuages
visibilité: 32.2 km
Détails des nuages: Quelques nuages 1500 ft,
Quelques nuages 27000 ft
CYGR 161500Z 27010KT 20SM FEW015 FEW270 12/05 A3005 RMK CU1CI2 CU TR SLP177
CWBY - PORT-MENIER
Mise à jour: 16-10-2019 10:00
  
  
   
Température: 8°C
Facteur éolien: 4°C
Point de rosée: 1°C
Humidité relative: 62%
CWBY 161400Z AUTO 26016KT 08/01 RMK AO1 PK WND 27023/1336 SLP147 T00830014 51012
CYZV - SEPT-ILES
Mise à jour: 16-10-2019 11:00
  
  
   
Température: 9°C
Facteur éolien: 7°C
Point de rosée: -1°C
Humidité relative: 50%
Pression barométrique: 101.46 kPa
Nuages: Quelques nuages
visibilité: 48.3 km
Détails des nuages: Quelques nuages 5000 ft,
Quelques nuages 10000 ft
CYZV 161500Z 27008KT 30SM FEW050 FEW100 09/M01 A2996 RMK CU1AC1 CU TR AC TR SLP150
CYGP - SHERBROOKE
Mise à jour: 16-10-2019 11:00
  
  
   
Température: 11°C
Point de rosée: 1°C
Humidité relative: 50%
Pression barométrique: 101.59 kPa
Nuages: Partiellement nuageux
visibilité: 24.1 km
Détails des nuages: Partiellement nuageux 22000 ft
CYGP 161500Z 26009KT 240V320 15SM SCT220 11/01 A3000 RMK CI4 SLP160
CYZV - GATINEAU
Mise à jour: 16-10-2019 11:00
  
  
   
Température: 9°C
Facteur éolien: 7°C
Point de rosée: -1°C
Humidité relative: 50%
Pression barométrique: 101.46 kPa
Nuages: Quelques nuages
visibilité: 48.3 km
Détails des nuages: Quelques nuages 5000 ft,
Quelques nuages 10000 ft
CYZV 161500Z 27008KT 30SM FEW050 FEW100 09/M01 A2996 RMK CU1AC1 CU TR AC TR SLP150
CYOW - OTTAWA
Mise à jour: 16-10-2019 11:00
  
  
   
Température: 10°C
Facteur éolien: 8°C
Point de rosée: 5°C
Humidité relative: 71%
Pression barométrique: 100.61 kPa
Nuages: Nuageux
visibilité: 24.1 km
Détails des nuages: Quelques nuages 5000 ft,
Généralement nuageux 8500 ft,
Généralement nuageux 11000 ft,
Nuageux 20000 ft
CYOW 161500Z 08009KT 15SM FEW050 BKN085 BKN110 OVC200 10/05 A2971 RMK SC1AC5AC1CS1 PCPN DIST W SLP064
  

Script original développé par  Saratoga-weather.org Adapté pour le modèle par  Weerstation Leuven

Les données sont envoyées via ces sites météo:

WeatherCloud

Weather Underground

AWEKAS

HAMweather, WeatherForYou, PWS Weather